MYR weather

Myrtle Beach International Airport
Myrtle Beach, South Carolina, United States

Public forecast

Using degrees Fahrenheit for public forecast. Weather courtesy of forecast.io.

Current aviation weather report (METAR) for Myrtle Beach International Airport

Retrieved 2019/12/14 15:24 UTC (0 seconds ago):

KMYR 141524Z 28014G19KT 10SM OVC006 12/11 A2960 RMK AO2

Aviation forecast (TAF) for Myrtle Beach International Airport

Retrieved 2019/12/14 12:30 UTC (3 hours ago):

TAF COR KMYR 141229Z 1412/1512 24007KT 3SM RA BR OVC012 FM141300 25008KT P6SM VCSH BKN015 FM141500 25011KT P6SM SCT035 FM150400 27010G18KT P6SM SKC